sensor_id;sensor_type;location;lat;lon;timestamp;P1;durP1;ratioP1;P2;durP2;ratioP2
33579;SDS011;19909;43.644;-79.438;2023-11-21T00:02:24;4.60;;;2.70;;
33579;SDS011;19909;43.644;-79.438;2023-11-21T00:04:52;4.30;;;2.60;;
33579;SDS011;19909;43.644;-79.438;2023-11-21T00:07:18;3.00;;;2.30;;
33579;SDS011;19909;43.644;-79.438;2023-11-21T00:09:46;4.47;;;2.35;;
33579;SDS011;19909;43.644;-79.438;2023-11-21T00:12:13;18.15;;;4.93;;
33579;SDS011;19909;43.644;-79.438;2023-11-21T00:14:39;142.02;;;36.78;;
33579;SDS011;19909;43.644;-79.438;2023-11-21T00:17:06;231.35;;;68.32;;
33579;SDS011;19909;43.644;-79.438;2023-11-21T00:19:32;251.52;;;73.07;;
33579;SDS011;19909;43.644;-79.438;2023-11-21T00:22:00;184.40;;;56.67;;
33579;SDS011;19909;43.644;-79.438;2023-11-21T00:24:26;128.77;;;40.65;;
33579;SDS011;19909;43.644;-79.438;2023-11-21T00:26:52;110.55;;;34.70;;
33579;SDS011;19909;43.644;-79.438;2023-11-21T00:29:18;126.93;;;41.72;;
33579;SDS011;19909;43.644;-79.438;2023-11-21T00:31:44;96.07;;;31.80;;
33579;SDS011;19909;43.644;-79.438;2023-11-21T00:34:11;99.03;;;33.72;;
33579;SDS011;19909;43.644;-79.438;2023-11-21T00:36:37;88.22;;;31.45;;
33579;SDS011;19909;43.644;-79.438;2023-11-21T00:39:04;78.18;;;26.92;;
33579;SDS011;19909;43.644;-79.438;2023-11-21T00:41:31;68.30;;;24.42;;
33579;SDS011;19909;43.644;-79.438;2023-11-21T00:43:57;66.45;;;21.40;;
33579;SDS011;19909;43.644;-79.438;2023-11-21T00:46:24;69.25;;;22.80;;
33579;SDS011;19909;43.644;-79.438;2023-11-21T00:48:53;62.13;;;22.10;;
33579;SDS011;19909;43.644;-79.438;2023-11-21T00:51:20;60.40;;;20.55;;
33579;SDS011;19909;43.644;-79.438;2023-11-21T00:53:46;55.35;;;20.92;;
33579;SDS011;19909;43.644;-79.438;2023-11-21T00:56:13;57.40;;;19.27;;
33579;SDS011;19909;43.644;-79.438;2023-11-21T00:58:40;53.17;;;19.63;;
33579;SDS011;19909;43.644;-79.438;2023-11-21T01:01:11;48.70;;;17.90;;
33579;SDS011;19909;43.644;-79.438;2023-11-21T01:03:37;42.67;;;17.58;;
33579;SDS011;19909;43.644;-79.438;2023-11-21T01:06:04;47.28;;;17.00;;
33579;SDS011;19909;43.644;-79.438;2023-11-21T01:08:33;46.85;;;20.13;;
33579;SDS011;19909;43.644;-79.438;2023-11-21T01:10:59;43.75;;;18.58;;
33579;SDS011;19909;43.644;-79.438;2023-11-21T01:13:26;46.83;;;19.40;;
33579;SDS011;19909;43.644;-79.438;2023-11-21T01:15:53;41.33;;;19.50;;
33579;SDS011;19909;43.644;-79.438;2023-11-21T01:18:19;51.40;;;21.45;;
33579;SDS011;19909;43.644;-79.438;2023-11-21T01:20:46;47.95;;;22.00;;
33579;SDS011;19909;43.644;-79.438;2023-11-21T01:23:15;45.30;;;19.42;;
33579;SDS011;19909;43.644;-79.438;2023-11-21T01:25:41;45.60;;;19.20;;
33579;SDS011;19909;43.644;-79.438;2023-11-21T01:28:07;41.97;;;18.80;;
33579;SDS011;19909;43.644;-79.438;2023-11-21T01:30:34;37.90;;;15.15;;
33579;SDS011;19909;43.644;-79.438;2023-11-21T01:33:00;33.35;;;16.30;;
33579;SDS011;19909;43.644;-79.438;2023-11-21T01:35:26;33.55;;;14.93;;
33579;SDS011;19909;43.644;-79.438;2023-11-21T01:37:53;35.30;;;15.63;;
33579;SDS011;19909;43.644;-79.438;2023-11-21T01:40:19;33.08;;;13.95;;
33579;SDS011;19909;43.644;-79.438;2023-11-21T01:42:46;28.15;;;13.80;;
33579;SDS011;19909;43.644;-79.438;2023-11-21T01:45:13;33.75;;;13.68;;
33579;SDS011;19909;43.644;-79.438;2023-11-21T01:47:40;26.48;;;12.93;;
33579;SDS011;19909;43.644;-79.438;2023-11-21T01:50:08;29.52;;;12.98;;
33579;SDS011;19909;43.644;-79.438;2023-11-21T01:52:37;24.60;;;11.73;;
33579;SDS011;19909;43.644;-79.438;2023-11-21T01:55:06;26.95;;;10.77;;
33579;SDS011;19909;43.644;-79.438;2023-11-21T01:57:37;21.17;;;10.13;;
33579;SDS011;19909;43.644;-79.438;2023-11-21T02:00:04;22.45;;;9.88;;
33579;SDS011;19909;43.644;-79.438;2023-11-21T02:02:46;20.65;;;9.50;;
33579;SDS011;19909;43.644;-79.438;2023-11-21T02:05:17;19.58;;;9.25;;
33579;SDS011;19909;43.644;-79.438;2023-11-21T02:07:44;20.67;;;9.95;;
33579;SDS011;19909;43.644;-79.438;2023-11-21T02:10:14;20.85;;;9.65;;
33579;SDS011;19909;43.644;-79.438;2023-11-21T02:12:41;22.42;;;9.85;;
33579;SDS011;19909;43.644;-79.438;2023-11-21T02:15:14;20.00;;;9.60;;
33579;SDS011;19909;43.644;-79.438;2023-11-21T02:17:43;21.20;;;10.00;;
33579;SDS011;19909;43.644;-79.438;2023-11-21T02:20:13;17.83;;;9.35;;
33579;SDS011;19909;43.644;-79.438;2023-11-21T02:22:43;20.77;;;10.30;;
33579;SDS011;19909;43.644;-79.438;2023-11-21T02:25:29;21.38;;;10.57;;
33579;SDS011;19909;43.644;-79.438;2023-11-21T02:27:57;19.60;;;8.65;;
33579;SDS011;19909;43.644;-79.438;2023-11-21T02:30:25;18.23;;;9.15;;
33579;SDS011;19909;43.644;-79.438;2023-11-21T02:32:58;17.83;;;8.60;;
33579;SDS011;19909;43.644;-79.438;2023-11-21T02:35:26;15.45;;;7.95;;
33579;SDS011;19909;43.644;-79.438;2023-11-21T02:37:53;14.50;;;7.38;;
33579;SDS011;19909;43.644;-79.438;2023-11-21T02:40:20;14.45;;;7.10;;
33579;SDS011;19909;43.644;-79.438;2023-11-21T02:42:47;14.75;;;7.30;;
33579;SDS011;19909;43.644;-79.438;2023-11-21T02:45:14;11.30;;;6.18;;
33579;SDS011;19909;43.644;-79.438;2023-11-21T02:47:43;13.93;;;6.20;;
33579;SDS011;19909;43.644;-79.438;2023-11-21T02:50:10;11.45;;;6.28;;
33579;SDS011;19909;43.644;-79.438;2023-11-21T02:52:36;14.48;;;6.57;;
33579;SDS011;19909;43.644;-79.438;2023-11-21T02:55:03;13.90;;;6.40;;
33579;SDS011;19909;43.644;-79.438;2023-11-21T02:57:30;13.15;;;6.53;;
33579;SDS011;19909;43.644;-79.438;2023-11-21T02:59:57;10.57;;;5.13;;
33579;SDS011;19909;43.644;-79.438;2023-11-21T03:02:25;12.55;;;5.22;;
33579;SDS011;19909;43.644;-79.438;2023-11-21T03:04:51;12.50;;;5.22;;
33579;SDS011;19909;43.644;-79.438;2023-11-21T03:07:17;11.35;;;5.55;;
33579;SDS011;19909;43.644;-79.438;2023-11-21T03:09:44;9.43;;;5.45;;
33579;SDS011;19909;43.644;-79.438;2023-11-21T03:12:11;11.70;;;5.65;;
33579;SDS011;19909;43.644;-79.438;2023-11-21T03:14:37;9.25;;;5.45;;
33579;SDS011;19909;43.644;-79.438;2023-11-21T03:17:04;13.57;;;6.38;;
33579;SDS011;19909;43.644;-79.438;2023-11-21T03:19:31;12.55;;;6.10;;
33579;SDS011;19909;43.644;-79.438;2023-11-21T03:21:58;12.15;;;6.18;;
33579;SDS011;19909;43.644;-79.438;2023-11-21T03:24:24;13.77;;;5.90;;
33579;SDS011;19909;43.644;-79.438;2023-11-21T03:26:51;13.75;;;5.80;;
33579;SDS011;19909;43.644;-79.438;2023-11-21T03:29:18;8.70;;;5.38;;
33579;SDS011;19909;43.644;-79.438;2023-11-21T03:31:44;8.98;;;5.43;;
33579;SDS011;19909;43.644;-79.438;2023-11-21T03:34:14;9.00;;;4.75;;
33579;SDS011;19909;43.644;-79.438;2023-11-21T03:36:42;8.63;;;4.93;;
33579;SDS011;19909;43.644;-79.438;2023-11-21T03:39:08;8.23;;;4.03;;
33579;SDS011;19909;43.644;-79.438;2023-11-21T03:41:34;7.22;;;3.83;;
33579;SDS011;19909;43.644;-79.438;2023-11-21T03:44:01;7.80;;;4.15;;
33579;SDS011;19909;43.644;-79.438;2023-11-21T03:46:27;7.32;;;4.05;;
33579;SDS011;19909;43.644;-79.438;2023-11-21T03:48:53;8.55;;;3.80;;
33579;SDS011;19909;43.644;-79.438;2023-11-21T03:51:20;7.03;;;3.67;;
33579;SDS011;19909;43.644;-79.438;2023-11-21T03:53:47;6.53;;;3.35;;
33579;SDS011;19909;43.644;-79.438;2023-11-21T03:56:13;5.30;;;3.13;;
33579;SDS011;19909;43.644;-79.438;2023-11-21T03:58:40;7.70;;;3.38;;
33579;SDS011;19909;43.644;-79.438;2023-11-21T04:01:06;6.38;;;3.60;;
33579;SDS011;19909;43.644;-79.438;2023-11-21T04:03:32;5.43;;;2.97;;
33579;SDS011;19909;43.644;-79.438;2023-11-21T04:05:58;6.15;;;3.40;;
33579;SDS011;19909;43.644;-79.438;2023-11-21T04:08:26;4.70;;;3.17;;
33579;SDS011;19909;43.644;-79.438;2023-11-21T04:10:52;6.63;;;3.53;;
33579;SDS011;19909;43.644;-79.438;2023-11-21T04:13:19;4.50;;;2.78;;
33579;SDS011;19909;43.644;-79.438;2023-11-21T04:15:45;4.47;;;2.92;;
33579;SDS011;19909;43.644;-79.438;2023-11-21T04:18:11;5.55;;;2.90;;
33579;SDS011;19909;43.644;-79.438;2023-11-21T04:20:37;4.65;;;2.58;;
33579;SDS011;19909;43.644;-79.438;2023-11-21T04:23:03;3.92;;;2.60;;
33579;SDS011;19909;43.644;-79.438;2023-11-21T04:25:29;4.15;;;2.38;;
33579;SDS011;19909;43.644;-79.438;2023-11-21T04:27:55;3.65;;;2.22;;
33579;SDS011;19909;43.644;-79.438;2023-11-21T04:30:22;3.05;;;1.92;;
33579;SDS011;19909;43.644;-79.438;2023-11-21T04:32:48;3.25;;;2.08;;
33579;SDS011;19909;43.644;-79.438;2023-11-21T04:35:15;3.40;;;1.75;;
33579;SDS011;19909;43.644;-79.438;2023-11-21T04:37:42;2.95;;;1.88;;
33579;SDS011;19909;43.644;-79.438;2023-11-21T04:40:08;3.65;;;1.88;;
33579;SDS011;19909;43.644;-79.438;2023-11-21T04:42:35;2.70;;;1.83;;
33579;SDS011;19909;43.644;-79.438;2023-11-21T04:45:01;2.72;;;1.75;;
33579;SDS011;19909;43.644;-79.438;2023-11-21T04:47:34;3.63;;;2.17;;
33579;SDS011;19909;43.644;-79.438;2023-11-21T04:50:01;2.63;;;1.40;;
33579;SDS011;19909;43.644;-79.438;2023-11-21T04:52:28;2.75;;;2.03;;
33579;SDS011;19909;43.644;-79.438;2023-11-21T04:54:55;2.97;;;1.70;;
33579;SDS011;19909;43.644;-79.438;2023-11-21T04:57:23;2.08;;;1.40;;
33579;SDS011;19909;43.644;-79.438;2023-11-21T04:59:49;2.15;;;1.20;;
33579;SDS011;19909;43.644;-79.438;2023-11-21T05:02:16;2.47;;;1.60;;
33579;SDS011;19909;43.644;-79.438;2023-11-21T05:04:44;2.08;;;1.20;;
33579;SDS011;19909;43.644;-79.438;2023-11-21T05:07:10;3.28;;;1.67;;
33579;SDS011;19909;43.644;-79.438;2023-11-21T05:09:40;3.97;;;2.15;;
33579;SDS011;19909;43.644;-79.438;2023-11-21T05:12:11;2.22;;;1.35;;
33579;SDS011;19909;43.644;-79.438;2023-11-21T05:14:38;1.85;;;1.30;;
33579;SDS011;19909;43.644;-79.438;2023-11-21T05:17:04;1.73;;;1.17;;
33579;SDS011;19909;43.644;-79.438;2023-11-21T05:19:30;1.95;;;1.10;;
33579;SDS011;19909;43.644;-79.438;2023-11-21T05:21:58;2.25;;;1.05;;
33579;SDS011;19909;43.644;-79.438;2023-11-21T05:24:25;1.38;;;1.15;;
33579;SDS011;19909;43.644;-79.438;2023-11-21T05:26:52;1.98;;;1.00;;
33579;SDS011;19909;43.644;-79.438;2023-11-21T05:29:18;1.38;;;0.90;;
33579;SDS011;19909;43.644;-79.438;2023-11-21T05:31:44;2.53;;;1.00;;
33579;SDS011;19909;43.644;-79.438;2023-11-21T05:34:10;1.23;;;0.80;;
33579;SDS011;19909;43.644;-79.438;2023-11-21T05:36:36;1.77;;;1.20;;
33579;SDS011;19909;43.644;-79.438;2023-11-21T05:39:02;1.83;;;1.13;;
33579;SDS011;19909;43.644;-79.438;2023-11-21T05:41:29;1.55;;;0.90;;
33579;SDS011;19909;43.644;-79.438;2023-11-21T05:43:55;2.15;;;0.80;;
33579;SDS011;19909;43.644;-79.438;2023-11-21T05:46:21;1.35;;;0.88;;
33579;SDS011;19909;43.644;-79.438;2023-11-21T05:48:47;1.85;;;1.00;;
33579;SDS011;19909;43.644;-79.438;2023-11-21T05:51:14;1.58;;;1.20;;
33579;SDS011;19909;43.644;-79.438;2023-11-21T05:53:40;1.20;;;0.90;;
33579;SDS011;19909;43.644;-79.438;2023-11-21T05:56:06;1.42;;;0.93;;
33579;SDS011;19909;43.644;-79.438;2023-11-21T05:58:33;1.27;;;0.77;;
33579;SDS011;19909;43.644;-79.438;2023-11-21T06:00:59;1.35;;;0.80;;
33579;SDS011;19909;43.644;-79.438;2023-11-21T06:03:25;1.20;;;0.70;;
33579;SDS011;19909;43.644;-79.438;2023-11-21T06:05:51;1.85;;;0.80;;
33579;SDS011;19909;43.644;-79.438;2023-11-21T06:08:17;0.93;;;0.70;;
33579;SDS011;19909;43.644;-79.438;2023-11-21T06:10:44;1.15;;;0.70;;
33579;SDS011;19909;43.644;-79.438;2023-11-21T06:13:10;1.10;;;0.73;;
33579;SDS011;19909;43.644;-79.438;2023-11-21T06:15:36;1.35;;;0.80;;
33579;SDS011;19909;43.644;-79.438;2023-11-21T06:18:02;1.95;;;0.80;;
33579;SDS011;19909;43.644;-79.438;2023-11-21T06:20:28;1.05;;;0.70;;
33579;SDS011;19909;43.644;-79.438;2023-11-21T06:22:54;1.83;;;0.40;;
33579;SDS011;19909;43.644;-79.438;2023-11-21T06:25:21;0.93;;;0.57;;
33579;SDS011;19909;43.644;-79.438;2023-11-21T06:27:47;1.05;;;0.63;;
33579;SDS011;19909;43.644;-79.438;2023-11-21T06:30:17;1.10;;;0.60;;
33579;SDS011;19909;43.644;-79.438;2023-11-21T06:32:45;0.47;;;0.40;;
33579;SDS011;19909;43.644;-79.438;2023-11-21T06:35:11;0.98;;;0.57;;
33579;SDS011;19909;43.644;-79.438;2023-11-21T06:37:38;0.70;;;0.50;;
33579;SDS011;19909;43.644;-79.438;2023-11-21T06:40:04;0.50;;;0.40;;
33579;SDS011;19909;43.644;-79.438;2023-11-21T06:42:31;0.80;;;0.50;;
33579;SDS011;19909;43.644;-79.438;2023-11-21T06:44:58;0.82;;;0.40;;
33579;SDS011;19909;43.644;-79.438;2023-11-21T06:47:28;0.50;;;0.32;;
33579;SDS011;19909;43.644;-79.438;2023-11-21T06:49:56;0.57;;;0.40;;
33579;SDS011;19909;43.644;-79.438;2023-11-21T06:52:22;0.60;;;0.40;;
33579;SDS011;19909;43.644;-79.438;2023-11-21T06:54:49;0.85;;;0.47;;
33579;SDS011;19909;43.644;-79.438;2023-11-21T06:57:15;0.80;;;0.52;;
33579;SDS011;19909;43.644;-79.438;2023-11-21T06:59:41;1.02;;;0.50;;
33579;SDS011;19909;43.644;-79.438;2023-11-21T07:02:08;0.73;;;0.38;;
33579;SDS011;19909;43.644;-79.438;2023-11-21T07:04:34;0.60;;;0.50;;
33579;SDS011;19909;43.644;-79.438;2023-11-21T07:07:02;0.40;;;0.30;;
33579;SDS011;19909;43.644;-79.438;2023-11-21T07:09:29;0.75;;;0.40;;
33579;SDS011;19909;43.644;-79.438;2023-11-21T07:11:56;1.08;;;0.50;;
33579;SDS011;19909;43.644;-79.438;2023-11-21T07:14:22;0.52;;;0.30;;
33579;SDS011;19909;43.644;-79.438;2023-11-21T07:16:48;1.27;;;0.30;;
33579;SDS011;19909;43.644;-79.438;2023-11-21T07:19:14;0.35;;;0.30;;
33579;SDS011;19909;43.644;-79.438;2023-11-21T07:21:40;0.77;;;0.40;;
33579;SDS011;19909;43.644;-79.438;2023-11-21T07:24:07;0.32;;;0.20;;
33579;SDS011;19909;43.644;-79.438;2023-11-21T07:26:34;0.80;;;0.40;;
33579;SDS011;19909;43.644;-79.438;2023-11-21T07:29:02;1.20;;;0.38;;
33579;SDS011;19909;43.644;-79.438;2023-11-21T07:31:29;0.32;;;0.28;;
33579;SDS011;19909;43.644;-79.438;2023-11-21T07:33:56;0.98;;;0.40;;
33579;SDS011;19909;43.644;-79.438;2023-11-21T07:36:23;0.30;;;0.20;;
33579;SDS011;19909;43.644;-79.438;2023-11-21T07:38:49;0.93;;;0.30;;
33579;SDS011;19909;43.644;-79.438;2023-11-21T07:41:17;0.60;;;0.30;;
33579;SDS011;19909;43.644;-79.438;2023-11-21T07:43:44;0.95;;;0.17;;
33579;SDS011;19909;43.644;-79.438;2023-11-21T07:46:11;0.85;;;0.30;;
33579;SDS011;19909;43.644;-79.438;2023-11-21T07:48:38;2.45;;;0.13;;
33579;SDS011;19909;43.644;-79.438;2023-11-21T07:51:06;0.40;;;0.30;;
33579;SDS011;19909;43.644;-79.438;2023-11-21T07:53:32;0.40;;;0.32;;
33579;SDS011;19909;43.644;-79.438;2023-11-21T07:56:03;1.13;;;0.47;;
33579;SDS011;19909;43.644;-79.438;2023-11-21T07:58:31;0.30;;;0.22;;
33579;SDS011;19909;43.644;-79.438;2023-11-21T08:01:01;0.32;;;0.20;;
33579;SDS011;19909;43.644;-79.438;2023-11-21T08:03:27;0.30;;;0.20;;
33579;SDS011;19909;43.644;-79.438;2023-11-21T08:06:00;0.20;;;0.13;;
33579;SDS011;19909;43.644;-79.438;2023-11-21T08:08:28;0.63;;;0.20;;
33579;SDS011;19909;43.644;-79.438;2023-11-21T08:10:55;0.57;;;0.20;;
33579;SDS011;19909;43.644;-79.438;2023-11-21T08:13:26;0.45;;;0.30;;
33579;SDS011;19909;43.644;-79.438;2023-11-21T08:15:56;0.30;;;0.20;;
33579;SDS011;19909;43.644;-79.438;2023-11-21T08:18:28;0.38;;;0.17;;
33579;SDS011;19909;43.644;-79.438;2023-11-21T08:20:55;0.28;;;0.10;;
33579;SDS011;19909;43.644;-79.438;2023-11-21T08:23:22;0.75;;;0.35;;
33579;SDS011;19909;43.644;-79.438;2023-11-21T08:25:51;0.63;;;0.20;;
33579;SDS011;19909;43.644;-79.438;2023-11-21T08:28:18;2.22;;;0.47;;
33579;SDS011;19909;43.644;-79.438;2023-11-21T08:30:48;0.85;;;0.22;;
33579;SDS011;19909;43.644;-79.438;2023-11-21T08:33:14;0.28;;;0.10;;
33579;SDS011;19909;43.644;-79.438;2023-11-21T08:35:41;0.63;;;0.10;;
33579;SDS011;19909;43.644;-79.438;2023-11-21T08:38:07;0.13;;;0.13;;
33579;SDS011;19909;43.644;-79.438;2023-11-21T08:40:35;0.50;;;0.20;;
33579;SDS011;19909;43.644;-79.438;2023-11-21T08:43:01;0.43;;;0.20;;
33579;SDS011;19909;43.644;-79.438;2023-11-21T08:45:29;0.70;;;0.20;;
33579;SDS011;19909;43.644;-79.438;2023-11-21T08:47:56;0.40;;;0.22;;
33579;SDS011;19909;43.644;-79.438;2023-11-21T08:50:22;0.45;;;0.22;;
33579;SDS011;19909;43.644;-79.438;2023-11-21T08:52:48;0.40;;;0.20;;
33579;SDS011;19909;43.644;-79.438;2023-11-21T08:55:15;0.68;;;0.22;;
33579;SDS011;19909;43.644;-79.438;2023-11-21T08:57:43;0.22;;;0.20;;
33579;SDS011;19909;43.644;-79.438;2023-11-21T09:00:10;0.22;;;0.22;;
33579;SDS011;19909;43.644;-79.438;2023-11-21T09:02:38;1.45;;;0.20;;
33579;SDS011;19909;43.644;-79.438;2023-11-21T09:05:10;0.80;;;0.32;;
33579;SDS011;19909;43.644;-79.438;2023-11-21T09:07:38;0.30;;;0.15;;
33579;SDS011;19909;43.644;-79.438;2023-11-21T09:10:06;0.20;;;0.20;;
33579;SDS011;19909;43.644;-79.438;2023-11-21T09:12:37;0.65;;;0.30;;
33579;SDS011;19909;43.644;-79.438;2023-11-21T09:15:05;0.20;;;0.13;;
33579;SDS011;19909;43.644;-79.438;2023-11-21T09:17:32;0.40;;;0.22;;
33579;SDS011;19909;43.644;-79.438;2023-11-21T09:20:02;0.50;;;0.30;;
33579;SDS011;19909;43.644;-79.438;2023-11-21T09:22:31;0.20;;;0.10;;
33579;SDS011;19909;43.644;-79.438;2023-11-21T09:24:57;0.40;;;0.17;;
33579;SDS011;19909;43.644;-79.438;2023-11-21T09:27:23;0.55;;;0.25;;
33579;SDS011;19909;43.644;-79.438;2023-11-21T09:29:51;0.43;;;0.20;;
33579;SDS011;19909;43.644;-79.438;2023-11-21T09:32:18;0.82;;;0.32;;
33579;SDS011;19909;43.644;-79.438;2023-11-21T09:34:47;0.60;;;0.30;;
33579;SDS011;19909;43.644;-79.438;2023-11-21T09:37:16;0.50;;;0.40;;
33579;SDS011;19909;43.644;-79.438;2023-11-21T09:39:42;0.13;;;0.13;;
33579;SDS011;19909;43.644;-79.438;2023-11-21T09:45:29;0.35;;;0.20;;
33579;SDS011;19909;43.644;-79.438;2023-11-21T09:48:00;0.40;;;0.20;;
33579;SDS011;19909;43.644;-79.438;2023-11-21T09:50:27;0.20;;;0.10;;
33579;SDS011;19909;43.644;-79.438;2023-11-21T09:55:41;0.55;;;0.17;;
33579;SDS011;19909;43.644;-79.438;2023-11-21T09:58:09;0.22;;;0.10;;
33579;SDS011;19909;43.644;-79.438;2023-11-21T10:00:46;0.20;;;0.20;;
33579;SDS011;19909;43.644;-79.438;2023-11-21T10:03:13;0.30;;;0.15;;
33579;SDS011;19909;43.644;-79.438;2023-11-21T10:05:43;0.20;;;0.10;;
33579;SDS011;19909;43.644;-79.438;2023-11-21T10:08:15;0.50;;;0.50;;
33579;SDS011;19909;43.644;-79.438;2023-11-21T10:10:46;0.52;;;0.15;;
33579;SDS011;19909;43.644;-79.438;2023-11-21T10:13:15;0.20;;;0.20;;
33579;SDS011;19909;43.644;-79.438;2023-11-21T10:15:44;0.50;;;0.20;;
33579;SDS011;19909;43.644;-79.438;2023-11-21T10:18:16;1.02;;;0.20;;
33579;SDS011;19909;43.644;-79.438;2023-11-21T10:20:44;0.20;;;0.20;;
33579;SDS011;19909;43.644;-79.438;2023-11-21T10:23:18;0.93;;;0.22;;
33579;SDS011;19909;43.644;-79.438;2023-11-21T10:25:46;0.50;;;0.20;;
33579;SDS011;19909;43.644;-79.438;2023-11-21T10:28:12;1.95;;;0.43;;
33579;SDS011;19909;43.644;-79.438;2023-11-21T10:30:38;0.22;;;0.10;;
33579;SDS011;19909;43.644;-79.438;2023-11-21T10:33:05;0.30;;;0.28;;
33579;SDS011;19909;43.644;-79.438;2023-11-21T10:38:14;0.60;;;0.35;;
33579;SDS011;19909;43.644;-79.438;2023-11-21T10:40:41;1.45;;;0.20;;
33579;SDS011;19909;43.644;-79.438;2023-11-21T10:43:07;0.60;;;0.20;;
33579;SDS011;19909;43.644;-79.438;2023-11-21T10:45:38;0.57;;;0.30;;
33579;SDS011;19909;43.644;-79.438;2023-11-21T10:48:06;0.45;;;0.20;;
33579;SDS011;19909;43.644;-79.438;2023-11-21T10:50:42;0.43;;;0.22;;
33579;SDS011;19909;43.644;-79.438;2023-11-21T10:53:09;0.30;;;0.20;;
33579;SDS011;19909;43.644;-79.438;2023-11-21T10:55:39;0.38;;;0.20;;
33579;SDS011;19909;43.644;-79.438;2023-11-21T10:58:05;0.32;;;0.30;;
33579;SDS011;19909;43.644;-79.438;2023-11-21T11:00:32;0.38;;;0.17;;
33579;SDS011;19909;43.644;-79.438;2023-11-21T11:02:59;0.55;;;0.22;;
33579;SDS011;19909;43.644;-79.438;2023-11-21T11:05:26;0.65;;;0.38;;
33579;SDS011;19909;43.644;-79.438;2023-11-21T11:08:05;0.28;;;0.20;;
33579;SDS011;19909;43.644;-79.438;2023-11-21T11:10:33;0.50;;;0.30;;
33579;SDS011;19909;43.644;-79.438;2023-11-21T11:13:00;0.22;;;0.20;;
33579;SDS011;19909;43.644;-79.438;2023-11-21T11:15:27;1.15;;;0.30;;
33579;SDS011;19909;43.644;-79.438;2023-11-21T11:17:54;0.45;;;0.40;;
33579;SDS011;19909;43.644;-79.438;2023-11-21T11:20:26;0.50;;;0.30;;
33579;SDS011;19909;43.644;-79.438;2023-11-21T11:28:29;0.57;;;0.30;;
33579;SDS011;19909;43.644;-79.438;2023-11-21T11:37:00;0.30;;;0.20;;
33579;SDS011;19909;43.644;-79.438;2023-11-21T11:39:35;0.30;;;0.13;;
33579;SDS011;19909;43.644;-79.438;2023-11-21T11:42:12;0.30;;;0.20;;
33579;SDS011;19909;43.644;-79.438;2023-11-21T11:47:56;0.70;;;0.30;;
33579;SDS011;19909;43.644;-79.438;2023-11-21T11:52:42;0.65;;;0.30;;
33579;SDS011;19909;43.644;-79.438;2023-11-21T11:55:11;0.52;;;0.32;;
33579;SDS011;19909;43.644;-79.438;2023-11-21T11:57:39;0.85;;;0.40;;
33579;SDS011;19909;43.644;-79.438;2023-11-21T12:00:22;0.70;;;0.40;;
33579;SDS011;19909;43.644;-79.438;2023-11-21T12:03:03;0.63;;;0.40;;
33579;SDS011;19909;43.644;-79.438;2023-11-21T12:05:34;0.82;;;0.50;;
33579;SDS011;19909;43.644;-79.438;2023-11-21T12:08:04;0.40;;;0.30;;
33579;SDS011;19909;43.644;-79.438;2023-11-21T12:10:33;0.60;;;0.43;;
33579;SDS011;19909;43.644;-79.438;2023-11-21T12:13:01;0.90;;;0.40;;
33579;SDS011;19909;43.644;-79.438;2023-11-21T12:15:35;0.40;;;0.20;;
33579;SDS011;19909;43.644;-79.438;2023-11-21T12:18:02;0.43;;;0.30;;
33579;SDS011;19909;43.644;-79.438;2023-11-21T12:20:29;0.32;;;0.32;;
33579;SDS011;19909;43.644;-79.438;2023-11-21T12:22:56;0.40;;;0.30;;
33579;SDS011;19909;43.644;-79.438;2023-11-21T12:25:31;0.45;;;0.30;;
33579;SDS011;19909;43.644;-79.438;2023-11-21T12:27:58;0.65;;;0.30;;
33579;SDS011;19909;43.644;-79.438;2023-11-21T12:30:26;0.28;;;0.20;;
33579;SDS011;19909;43.644;-79.438;2023-11-21T12:32:56;0.38;;;0.30;;
33579;SDS011;19909;43.644;-79.438;2023-11-21T12:35:27;1.23;;;0.47;;
33579;SDS011;19909;43.644;-79.438;2023-11-21T12:37:59;0.63;;;0.40;;
33579;SDS011;19909;43.644;-79.438;2023-11-21T12:40:28;0.95;;;0.40;;
33579;SDS011;19909;43.644;-79.438;2023-11-21T12:42:55;0.40;;;0.28;;
33579;SDS011;19909;43.644;-79.438;2023-11-21T12:45:24;0.30;;;0.30;;
33579;SDS011;19909;43.644;-79.438;2023-11-21T12:47:56;1.83;;;0.55;;
33579;SDS011;19909;43.644;-79.438;2023-11-21T12:50:32;0.40;;;0.30;;
33579;SDS011;19909;43.644;-79.438;2023-11-21T12:55:29;0.65;;;0.40;;
33579;SDS011;19909;43.644;-79.438;2023-11-21T12:57:57;0.55;;;0.40;;
33579;SDS011;19909;43.644;-79.438;2023-11-21T13:00:28;0.55;;;0.40;;
33579;SDS011;19909;43.644;-79.438;2023-11-21T13:03:02;0.30;;;0.30;;
33579;SDS011;19909;43.644;-79.438;2023-11-21T13:05:31;0.70;;;0.50;;
33579;SDS011;19909;43.644;-79.438;2023-11-21T13:08:05;0.65;;;0.40;;
33579;SDS011;19909;43.644;-79.438;2023-11-21T13:10:41;2.08;;;0.57;;
33579;SDS011;19909;43.644;-79.438;2023-11-21T13:13:10;1.27;;;0.30;;
33579;SDS011;19909;43.644;-79.438;2023-11-21T13:15:47;3.10;;;0.60;;
33579;SDS011;19909;43.644;-79.438;2023-11-21T13:20:41;1.88;;;0.38;;
33579;SDS011;19909;43.644;-79.438;2023-11-21T13:23:12;0.35;;;0.30;;
33579;SDS011;19909;43.644;-79.438;2023-11-21T13:25:39;1.35;;;0.60;;
33579;SDS011;19909;43.644;-79.438;2023-11-21T13:28:08;0.40;;;0.30;;
33579;SDS011;19909;43.644;-79.438;2023-11-21T13:30:37;1.20;;;0.32;;
33579;SDS011;19909;43.644;-79.438;2023-11-21T13:33:05;1.08;;;0.50;;
33579;SDS011;19909;43.644;-79.438;2023-11-21T13:35:39;3.13;;;0.50;;
33579;SDS011;19909;43.644;-79.438;2023-11-21T13:38:13;1.30;;;0.30;;
33579;SDS011;19909;43.644;-79.438;2023-11-21T13:40:47;0.77;;;0.45;;
33579;SDS011;19909;43.644;-79.438;2023-11-21T13:43:15;1.80;;;0.37;;
33579;SDS011;19909;43.644;-79.438;2023-11-21T13:45:47;0.53;;;0.50;;
33579;SDS011;19909;43.644;-79.438;2023-11-21T13:58:13;0.73;;;0.20;;
33579;SDS011;19909;43.644;-79.438;2023-11-21T14:00:47;0.30;;;0.20;;
33579;SDS011;19909;43.644;-79.438;2023-11-21T14:03:20;2.53;;;0.55;;
33579;SDS011;19909;43.644;-79.438;2023-11-21T14:05:47;1.27;;;0.52;;
33579;SDS011;19909;43.644;-79.438;2023-11-21T14:08:18;0.50;;;0.30;;
33579;SDS011;19909;43.644;-79.438;2023-11-21T14:10:45;0.80;;;0.30;;
33579;SDS011;19909;43.644;-79.438;2023-11-21T14:13:20;0.52;;;0.40;;
33579;SDS011;19909;43.644;-79.438;2023-11-21T14:15:48;0.50;;;0.32;;
33579;SDS011;19909;43.644;-79.438;2023-11-21T14:18:19;0.60;;;0.50;;
33579;SDS011;19909;43.644;-79.438;2023-11-21T14:20:52;1.17;;;0.50;;
33579;SDS011;19909;43.644;-79.438;2023-11-21T14:23:18;0.40;;;0.30;;
33579;SDS011;19909;43.644;-79.438;2023-11-21T14:25:46;0.60;;;0.30;;
33579;SDS011;19909;43.644;-79.438;2023-11-21T14:28:13;1.52;;;0.20;;
33579;SDS011;19909;43.644;-79.438;2023-11-21T14:30:40;0.60;;;0.30;;
33579;SDS011;19909;43.644;-79.438;2023-11-21T14:33:07;0.50;;;0.30;;
33579;SDS011;19909;43.644;-79.438;2023-11-21T14:35:36;0.82;;;0.47;;
33579;SDS011;19909;43.644;-79.438;2023-11-21T14:38:02;1.00;;;0.60;;
33579;SDS011;19909;43.644;-79.438;2023-11-21T14:40:32;0.47;;;0.32;;
33579;SDS011;19909;43.644;-79.438;2023-11-21T14:43:04;0.68;;;0.43;;
33579;SDS011;19909;43.644;-79.438;2023-11-21T14:45:33;1.85;;;0.30;;
33579;SDS011;19909;43.644;-79.438;2023-11-21T14:48:00;0.77;;;0.30;;
33579;SDS011;19909;43.644;-79.438;2023-11-21T15:00:37;0.65;;;0.50;;
33579;SDS011;19909;43.644;-79.438;2023-11-21T15:03:10;0.50;;;0.43;;
33579;SDS011;19909;43.644;-79.438;2023-11-21T15:05:56;0.40;;;0.30;;
33579;SDS011;19909;43.644;-79.438;2023-11-21T15:08:23;0.40;;;0.40;;
33579;SDS011;19909;43.644;-79.438;2023-11-21T15:10:57;1.15;;;0.40;;
33579;SDS011;19909;43.644;-79.438;2023-11-21T15:13:23;0.30;;;0.30;;